sensor_id;sensor_type;location;lat;lon;timestamp;temperature;humidity
65470;DHT22;52067;50.710;14.492;2023-04-03T00:01:14;1.66;64.28
65470;DHT22;52067;50.710;14.492;2023-04-03T00:03:40;1.61;64.69
65470;DHT22;52067;50.710;14.492;2023-04-03T00:06:10;1.66;64.42
65470;DHT22;52067;50.710;14.492;2023-04-03T00:08:37;1.53;65.27
65470;DHT22;52067;50.710;14.492;2023-04-03T00:11:02;1.37;66.40
65470;DHT22;52067;50.710;14.492;2023-04-03T00:13:29;1.39;65.86
65470;DHT22;52067;50.710;14.492;2023-04-03T00:15:54;1.39;66.73
65470;DHT22;52067;50.710;14.492;2023-04-03T00:18:20;1.37;67.34
65470;DHT22;52067;50.710;14.492;2023-04-03T00:20:45;1.42;66.84
65470;DHT22;52067;50.710;14.492;2023-04-03T00:23:11;1.33;67.17
65470;DHT22;52067;50.710;14.492;2023-04-03T00:25:36;1.26;68.15
65470;DHT22;52067;50.710;14.492;2023-04-03T00:28:03;1.16;69.12
65470;DHT22;52067;50.710;14.492;2023-04-03T00:30:29;1.15;69.35
65470;DHT22;52067;50.710;14.492;2023-04-03T00:32:54;1.16;69.02
65470;DHT22;52067;50.710;14.492;2023-04-03T00:35:21;1.09;68.90
65470;DHT22;52067;50.710;14.492;2023-04-03T00:37:47;1.13;68.45
65470;DHT22;52067;50.710;14.492;2023-04-03T00:40:14;1.03;69.12
65470;DHT22;52067;50.710;14.492;2023-04-03T00:42:41;1.02;68.50
65470;DHT22;52067;50.710;14.492;2023-04-03T00:47:39;0.92;69.03
65470;DHT22;52067;50.710;14.492;2023-04-03T00:50:06;0.96;68.29
65470;DHT22;52067;50.710;14.492;2023-04-03T00:52:32;0.89;68.79
65470;DHT22;52067;50.710;14.492;2023-04-03T00:55:02;0.85;68.56
65470;DHT22;52067;50.710;14.492;2023-04-03T00:57:30;0.89;68.19
65470;DHT22;52067;50.710;14.492;2023-04-03T01:00:00;0.82;68.99
65470;DHT22;52067;50.710;14.492;2023-04-03T01:02:26;0.74;68.86
65470;DHT22;52067;50.710;14.492;2023-04-03T01:04:52;0.67;69.39
65470;DHT22;52067;50.710;14.492;2023-04-03T01:07:22;0.61;69.30
65470;DHT22;52067;50.710;14.492;2023-04-03T01:09:51;0.64;69.22
65470;DHT22;52067;50.710;14.492;2023-04-03T01:14:49;0.60;69.43
65470;DHT22;52067;50.710;14.492;2023-04-03T01:17:41;0.58;69.44
65470;DHT22;52067;50.710;14.492;2023-04-03T01:25:46;0.60;68.17
65470;DHT22;52067;50.710;14.492;2023-04-03T01:28:15;0.49;69.64
65470;DHT22;52067;50.710;14.492;2023-04-03T01:30:47;0.46;69.89
65470;DHT22;52067;50.710;14.492;2023-04-03T01:33:13;0.30;70.70
65470;DHT22;52067;50.710;14.492;2023-04-03T01:35:39;0.34;70.77
65470;DHT22;52067;50.710;14.492;2023-04-03T01:38:04;0.37;70.72
65470;DHT22;52067;50.710;14.492;2023-04-03T01:40:30;0.30;70.88
65470;DHT22;52067;50.710;14.492;2023-04-03T01:42:55;0.31;70.73
65470;DHT22;52067;50.710;14.492;2023-04-03T01:45:21;0.23;71.47
65470;DHT22;52067;50.710;14.492;2023-04-03T01:47:46;0.19;71.67
65470;DHT22;52067;50.710;14.492;2023-04-03T01:50:11;0.13;71.63
65470;DHT22;52067;50.710;14.492;2023-04-03T01:52:37;0.17;71.52
65470;DHT22;52067;50.710;14.492;2023-04-03T01:55:02;0.16;71.38
65470;DHT22;52067;50.710;14.492;2023-04-03T01:57:28;0.14;71.50
65470;DHT22;52067;50.710;14.492;2023-04-03T01:59:53;0.10;71.77
65470;DHT22;52067;50.710;14.492;2023-04-03T02:02:18;0.12;71.71
65470;DHT22;52067;50.710;14.492;2023-04-03T02:04:45;0.16;70.91
65470;DHT22;52067;50.710;14.492;2023-04-03T02:07:11;0.03;71.85
65470;DHT22;52067;50.710;14.492;2023-04-03T02:09:36;0.06;71.58
65470;DHT22;52067;50.710;14.492;2023-04-03T02:12:01;0.07;71.51
65470;DHT22;52067;50.710;14.492;2023-04-03T02:14:27;-0.07;72.52
65470;DHT22;52067;50.710;14.492;2023-04-03T02:16:52;-0.05;71.79
65470;DHT22;52067;50.710;14.492;2023-04-03T02:19:18;-0.05;71.99
65470;DHT22;52067;50.710;14.492;2023-04-03T02:21:43;-0.12;72.12
65470;DHT22;52067;50.710;14.492;2023-04-03T02:24:08;-0.15;72.18
65470;DHT22;52067;50.710;14.492;2023-04-03T02:26:34;-0.08;71.43
65470;DHT22;52067;50.710;14.492;2023-04-03T02:28:59;-0.18;72.05
65470;DHT22;52067;50.710;14.492;2023-04-03T02:31:25;-0.17;71.37
65470;DHT22;52067;50.710;14.492;2023-04-03T02:33:50;-0.12;71.79
65470;DHT22;52067;50.710;14.492;2023-04-03T02:36:16;-0.19;72.03
65470;DHT22;52067;50.710;14.492;2023-04-03T02:38:42;-0.19;71.97
65470;DHT22;52067;50.710;14.492;2023-04-03T02:41:10;-0.33;73.02
65470;DHT22;52067;50.710;14.492;2023-04-03T02:43:36;-0.26;72.59
65470;DHT22;52067;50.710;14.492;2023-04-03T02:46:01;-0.38;73.41
65470;DHT22;52067;50.710;14.492;2023-04-03T02:48:27;-0.45;73.54
65470;DHT22;52067;50.710;14.492;2023-04-03T02:50:53;-0.43;73.80
65470;DHT22;52067;50.710;14.492;2023-04-03T02:53:18;-0.50;74.12
65470;DHT22;52067;50.710;14.492;2023-04-03T02:55:44;-0.60;74.12
65470;DHT22;52067;50.710;14.492;2023-04-03T02:58:10;-0.49;73.77
65470;DHT22;52067;50.710;14.492;2023-04-03T03:00:36;-0.52;74.25
65470;DHT22;52067;50.710;14.492;2023-04-03T03:03:01;-0.48;73.67
65470;DHT22;52067;50.710;14.492;2023-04-03T03:05:27;-0.52;74.38
65470;DHT22;52067;50.710;14.492;2023-04-03T03:07:53;-0.52;74.02
65470;DHT22;52067;50.710;14.492;2023-04-03T03:10:19;-0.50;74.34
65470;DHT22;52067;50.710;14.492;2023-04-03T03:12:45;-0.57;75.05
65470;DHT22;52067;50.710;14.492;2023-04-03T03:15:11;-0.50;74.61
65470;DHT22;52067;50.710;14.492;2023-04-03T03:17:36;-0.49;74.85
65470;DHT22;52067;50.710;14.492;2023-04-03T03:20:03;-0.55;75.71
65470;DHT22;52067;50.710;14.492;2023-04-03T03:22:29;-0.53;75.47
65470;DHT22;52067;50.710;14.492;2023-04-03T03:24:54;-0.55;75.16
65470;DHT22;52067;50.710;14.492;2023-04-03T03:27:20;-0.42;75.33
65470;DHT22;52067;50.710;14.492;2023-04-03T03:29:45;-0.33;75.10
65470;DHT22;52067;50.710;14.492;2023-04-03T03:32:11;-0.36;75.21
65470;DHT22;52067;50.710;14.492;2023-04-03T03:34:36;-0.30;75.36
65470;DHT22;52067;50.710;14.492;2023-04-03T03:37:02;-0.29;75.19
65470;DHT22;52067;50.710;14.492;2023-04-03T03:39:27;-0.26;75.07
65470;DHT22;52067;50.710;14.492;2023-04-03T03:41:53;-0.25;74.90
65470;DHT22;52067;50.710;14.492;2023-04-03T03:44:19;-0.26;75.62
65470;DHT22;52067;50.710;14.492;2023-04-03T03:46:44;-0.23;75.09
65470;DHT22;52067;50.710;14.492;2023-04-03T03:49:10;-0.25;75.74
65470;DHT22;52067;50.710;14.492;2023-04-03T03:51:36;-0.26;75.21
65470;DHT22;52067;50.710;14.492;2023-04-03T03:54:02;-0.33;75.73
65470;DHT22;52067;50.710;14.492;2023-04-03T03:56:28;-0.30;75.93
65470;DHT22;52067;50.710;14.492;2023-04-03T03:58:53;-0.28;75.92
65470;DHT22;52067;50.710;14.492;2023-04-03T04:01:21;-0.28;75.45
65470;DHT22;52067;50.710;14.492;2023-04-03T04:03:47;-0.30;76.20
65470;DHT22;52067;50.710;14.492;2023-04-03T04:06:13;-0.29;76.33
65470;DHT22;52067;50.710;14.492;2023-04-03T04:08:38;-0.29;76.63
65470;DHT22;52067;50.710;14.492;2023-04-03T04:11:03;-0.28;75.63
65470;DHT22;52067;50.710;14.492;2023-04-03T04:13:29;-0.30;76.28
65470;DHT22;52067;50.710;14.492;2023-04-03T04:15:54;-0.30;76.12
65470;DHT22;52067;50.710;14.492;2023-04-03T04:18:20;-0.33;76.31
65470;DHT22;52067;50.710;14.492;2023-04-03T04:20:46;-0.32;75.94
65470;DHT22;52067;50.710;14.492;2023-04-03T04:23:11;-0.36;76.22
65470;DHT22;52067;50.710;14.492;2023-04-03T04:25:37;-0.40;76.53
65470;DHT22;52067;50.710;14.492;2023-04-03T04:28:02;-0.45;76.22
65470;DHT22;52067;50.710;14.492;2023-04-03T04:30:28;-0.36;76.90
65470;DHT22;52067;50.710;14.492;2023-04-03T04:32:53;-0.39;77.10
65470;DHT22;52067;50.710;14.492;2023-04-03T04:35:19;-0.36;76.43
65470;DHT22;52067;50.710;14.492;2023-04-03T04:37:44;-0.45;76.62
65470;DHT22;52067;50.710;14.492;2023-04-03T04:40:10;-0.59;77.49
65470;DHT22;52067;50.710;14.492;2023-04-03T04:42:35;-0.55;76.88
65470;DHT22;52067;50.710;14.492;2023-04-03T04:45:00;-0.56;77.07
65470;DHT22;52067;50.710;14.492;2023-04-03T04:47:28;-0.57;76.34
65470;DHT22;52067;50.710;14.492;2023-04-03T04:49:53;-0.55;76.62
65470;DHT22;52067;50.710;14.492;2023-04-03T04:52:19;-0.50;76.92
65470;DHT22;52067;50.710;14.492;2023-04-03T04:54:44;-0.55;77.32
65470;DHT22;52067;50.710;14.492;2023-04-03T04:57:10;-0.59;77.55
65470;DHT22;52067;50.710;14.492;2023-04-03T04:59:36;-0.55;77.18
65470;DHT22;52067;50.710;14.492;2023-04-03T05:02:01;-0.53;77.05
65470;DHT22;52067;50.710;14.492;2023-04-03T05:04:26;-0.43;78.15
65470;DHT22;52067;50.710;14.492;2023-04-03T05:06:52;-0.46;78.03
65470;DHT22;52067;50.710;14.492;2023-04-03T05:09:17;-0.52;77.25
65470;DHT22;52067;50.710;14.492;2023-04-03T05:11:45;-0.53;77.81
65470;DHT22;52067;50.710;14.492;2023-04-03T05:14:10;-0.48;77.57
65470;DHT22;52067;50.710;14.492;2023-04-03T05:16:35;-0.46;77.04
65470;DHT22;52067;50.710;14.492;2023-04-03T05:19:01;-0.40;77.65
65470;DHT22;52067;50.710;14.492;2023-04-03T05:21:26;-0.45;77.25
65470;DHT22;52067;50.710;14.492;2023-04-03T05:23:57;-0.36;77.30
65470;DHT22;52067;50.710;14.492;2023-04-03T05:26:22;-0.49;76.80
65470;DHT22;52067;50.710;14.492;2023-04-03T05:28:48;-0.45;77.54
65470;DHT22;52067;50.710;14.492;2023-04-03T05:31:13;-0.46;77.26
65470;DHT22;52067;50.710;14.492;2023-04-03T05:33:38;-0.49;77.04
65470;DHT22;52067;50.710;14.492;2023-04-03T05:36:04;-0.45;77.69
65470;DHT22;52067;50.710;14.492;2023-04-03T05:38:30;-0.43;77.87
65470;DHT22;52067;50.710;14.492;2023-04-03T05:40:56;-0.55;77.72
65470;DHT22;52067;50.710;14.492;2023-04-03T05:43:21;-0.46;77.82
65470;DHT22;52067;50.710;14.492;2023-04-03T05:45:47;-0.40;76.48
65470;DHT22;52067;50.710;14.492;2023-04-03T05:48:13;-0.32;76.33
65470;DHT22;52067;50.710;14.492;2023-04-03T05:50:38;-0.50;76.92
65470;DHT22;52067;50.710;14.492;2023-04-03T05:53:07;-0.46;76.73
65470;DHT22;52067;50.710;14.492;2023-04-03T05:55:33;-0.49;76.97
65470;DHT22;52067;50.710;14.492;2023-04-03T05:57:59;-0.55;76.79
65470;DHT22;52067;50.710;14.492;2023-04-03T06:00:24;-0.53;77.15
65470;DHT22;52067;50.710;14.492;2023-04-03T06:02:50;-0.45;76.60
65470;DHT22;52067;50.710;14.492;2023-04-03T06:05:15;-0.35;76.44
65470;DHT22;52067;50.710;14.492;2023-04-03T06:07:40;-0.38;77.41
65470;DHT22;52067;50.710;14.492;2023-04-03T06:10:07;-0.32;77.43
65470;DHT22;52067;50.710;14.492;2023-04-03T06:12:34;-0.22;76.76
65470;DHT22;52067;50.710;14.492;2023-04-03T06:14:59;-0.17;76.20
65470;DHT22;52067;50.710;14.492;2023-04-03T06:17:24;-0.21;77.03
65470;DHT22;52067;50.710;14.492;2023-04-03T06:19:50;-0.21;76.75
65470;DHT22;52067;50.710;14.492;2023-04-03T06:22:16;-0.30;76.61
65470;DHT22;52067;50.710;14.492;2023-04-03T06:24:41;-0.35;77.75
65470;DHT22;52067;50.710;14.492;2023-04-03T06:27:07;-0.28;77.68
65470;DHT22;52067;50.710;14.492;2023-04-03T06:29:32;-0.18;76.78
65470;DHT22;52067;50.710;14.492;2023-04-03T06:31:58;-0.14;76.58
65470;DHT22;52067;50.710;14.492;2023-04-03T06:34:23;0.02;76.18
65470;DHT22;52067;50.710;14.492;2023-04-03T06:36:48;0.13;76.34
65470;DHT22;52067;50.710;14.492;2023-04-03T06:39:20;-0.15;75.75
65470;DHT22;52067;50.710;14.492;2023-04-03T06:41:46;-0.18;77.12
65470;DHT22;52067;50.710;14.492;2023-04-03T06:44:12;-0.04;76.30
65470;DHT22;52067;50.710;14.492;2023-04-03T06:46:39;0.22;76.29
65470;DHT22;52067;50.710;14.492;2023-04-03T06:49:05;0.22;76.08
65470;DHT22;52067;50.710;14.492;2023-04-03T06:51:33;0.39;74.78
65470;DHT22;52067;50.710;14.492;2023-04-03T06:53:59;0.29;75.16
65470;DHT22;52067;50.710;14.492;2023-04-03T06:56:25;0.33;75.49
65470;DHT22;52067;50.710;14.492;2023-04-03T06:58:52;0.14;75.32
65470;DHT22;52067;50.710;14.492;2023-04-03T07:01:19;0.17;74.52
65470;DHT22;52067;50.710;14.492;2023-04-03T07:03:45;0.13;76.13
65470;DHT22;52067;50.710;14.492;2023-04-03T07:06:13;0.01;75.36
65470;DHT22;52067;50.710;14.492;2023-04-03T07:08:39;0.07;75.59
65470;DHT22;52067;50.710;14.492;2023-04-03T07:11:05;0.33;75.56
65470;DHT22;52067;50.710;14.492;2023-04-03T07:13:31;0.16;75.22
65470;DHT22;52067;50.710;14.492;2023-04-03T07:15:56;0.26;76.62
65470;DHT22;52067;50.710;14.492;2023-04-03T07:18:22;0.47;75.60
65470;DHT22;52067;50.710;14.492;2023-04-03T07:20:48;0.37;73.68
65470;DHT22;52067;50.710;14.492;2023-04-03T07:23:13;0.24;73.84
65470;DHT22;52067;50.710;14.492;2023-04-03T07:25:47;0.13;74.42
65470;DHT22;52067;50.710;14.492;2023-04-03T07:28:13;0.22;74.30
65470;DHT22;52067;50.710;14.492;2023-04-03T07:30:45;0.20;74.18
65470;DHT22;52067;50.710;14.492;2023-04-03T07:33:11;0.14;72.93
65470;DHT22;52067;50.710;14.492;2023-04-03T07:35:37;-0.09;74.10
65470;DHT22;52067;50.710;14.492;2023-04-03T07:38:02;0.10;73.66
65470;DHT22;52067;50.710;14.492;2023-04-03T07:40:28;0.23;74.36
65470;DHT22;52067;50.710;14.492;2023-04-03T07:42:53;0.58;72.76
65470;DHT22;52067;50.710;14.492;2023-04-03T07:45:20;0.98;72.97
65470;DHT22;52067;50.710;14.492;2023-04-03T07:47:45;1.26;71.84
65470;DHT22;52067;50.710;14.492;2023-04-03T07:50:11;1.66;71.72
65470;DHT22;52067;50.710;14.492;2023-04-03T07:52:36;1.77;71.66
65470;DHT22;52067;50.710;14.492;2023-04-03T07:55:01;1.98;71.75
65470;DHT22;52067;50.710;14.492;2023-04-03T07:57:27;1.44;71.18
65470;DHT22;52067;50.710;14.492;2023-04-03T07:59:52;1.95;73.41
65470;DHT22;52067;50.710;14.492;2023-04-03T08:02:18;2.12;71.18
65470;DHT22;52067;50.710;14.492;2023-04-03T08:04:43;2.26;69.07
65470;DHT22;52067;50.710;14.492;2023-04-03T08:07:09;2.29;69.49
65470;DHT22;52067;50.710;14.492;2023-04-03T08:09:34;1.68;70.98
65470;DHT22;52067;50.710;14.492;2023-04-03T08:11:59;1.78;71.53
65470;DHT22;52067;50.710;14.492;2023-04-03T08:14:26;1.97;70.49
65470;DHT22;52067;50.710;14.492;2023-04-03T08:16:51;2.12;69.49
65470;DHT22;52067;50.710;14.492;2023-04-03T08:19:17;1.16;70.73
65470;DHT22;52067;50.710;14.492;2023-04-03T08:21:43;1.19;70.57
65470;DHT22;52067;50.710;14.492;2023-04-03T08:24:09;1.22;71.09
65470;DHT22;52067;50.710;14.492;2023-04-03T08:26:35;1.30;71.75
65470;DHT22;52067;50.710;14.492;2023-04-03T08:29:01;1.85;71.30
65470;DHT22;52067;50.710;14.492;2023-04-03T08:31:27;2.25;70.67
65470;DHT22;52067;50.710;14.492;2023-04-03T08:33:53;1.98;69.21
65470;DHT22;52067;50.710;14.492;2023-04-03T08:36:21;2.32;69.72
65470;DHT22;52067;50.710;14.492;2023-04-03T08:38:48;2.56;69.12
65470;DHT22;52067;50.710;14.492;2023-04-03T08:43:58;2.50;69.09
65470;DHT22;52067;50.710;14.492;2023-04-03T08:46:38;2.54;68.94
65470;DHT22;52067;50.710;14.492;2023-04-03T08:49:21;1.95;67.16
65470;DHT22;52067;50.710;14.492;2023-04-03T08:51:48;2.21;66.88
65470;DHT22;52067;50.710;14.492;2023-04-03T08:54:30;1.57;66.76
65470;DHT22;52067;50.710;14.492;2023-04-03T08:56:57;2.45;68.83
65470;DHT22;52067;50.710;14.492;2023-04-03T08:59:28;2.42;67.95
65470;DHT22;52067;50.710;14.492;2023-04-03T09:01:56;2.58;67.31
65470;DHT22;52067;50.710;14.492;2023-04-03T09:04:23;2.24;66.37
65470;DHT22;52067;50.710;14.492;2023-04-03T09:06:55;2.63;66.63
65470;DHT22;52067;50.710;14.492;2023-04-03T09:09:29;2.18;65.44
65470;DHT22;52067;50.710;14.492;2023-04-03T09:12:17;2.21;66.19
65470;DHT22;52067;50.710;14.492;2023-04-03T09:15:00;2.94;63.96
65470;DHT22;52067;50.710;14.492;2023-04-03T09:20:39;4.13;61.70
65470;DHT22;52067;50.710;14.492;2023-04-03T09:28:41;2.49;64.48
65470;DHT22;52067;50.710;14.492;2023-04-03T09:31:27;2.07;64.54
65470;DHT22;52067;50.710;14.492;2023-04-03T09:33:58;2.29;63.92
65470;DHT22;52067;50.710;14.492;2023-04-03T09:36:39;2.37;63.54
65470;DHT22;52067;50.710;14.492;2023-04-03T09:39:07;2.30;63.21
65470;DHT22;52067;50.710;14.492;2023-04-03T09:41:35;2.53;63.90
65470;DHT22;52067;50.710;14.492;2023-04-03T09:44:00;2.91;64.10
65470;DHT22;52067;50.710;14.492;2023-04-03T09:46:32;2.54;60.74
65470;DHT22;52067;50.710;14.492;2023-04-03T09:49:02;3.46;62.23
65470;DHT22;52067;50.710;14.492;2023-04-03T09:51:29;4.41;63.79
65470;DHT22;52067;50.710;14.492;2023-04-03T09:53:55;3.95;57.92
65470;DHT22;52067;50.710;14.492;2023-04-03T09:56:25;3.08;62.78
65470;DHT22;52067;50.710;14.492;2023-04-03T10:01:31;3.09;61.43
65470;DHT22;52067;50.710;14.492;2023-04-03T10:04:12;2.97;62.22
65470;DHT22;52067;50.710;14.492;2023-04-03T10:06:44;2.80;61.42
65470;DHT22;52067;50.710;14.492;2023-04-03T10:09:21;3.09;61.98
65470;DHT22;52067;50.710;14.492;2023-04-03T10:12:10;5.00;59.60
65470;DHT22;52067;50.710;14.492;2023-04-03T10:14:40;6.13;57.83
65470;DHT22;52067;50.710;14.492;2023-04-03T10:19:57;4.13;57.91
65470;DHT22;52067;50.710;14.492;2023-04-03T10:22:35;3.58;60.79
65470;DHT22;52067;50.710;14.492;2023-04-03T10:25:20;3.67;62.34
65470;DHT22;52067;50.710;14.492;2023-04-03T10:33:33;3.26;60.47
65470;DHT22;52067;50.710;14.492;2023-04-03T10:39:19;4.96;59.63
65470;DHT22;52067;50.710;14.492;2023-04-03T10:41:54;4.79;57.17
65470;DHT22;52067;50.710;14.492;2023-04-03T10:47:22;3.79;58.21
65470;DHT22;52067;50.710;14.492;2023-04-03T10:49:55;3.83;60.61
65470;DHT22;52067;50.710;14.492;2023-04-03T10:52:34;5.83;56.01
65470;DHT22;52067;50.710;14.492;2023-04-03T10:57:27;4.13;56.18
65470;DHT22;52067;50.710;14.492;2023-04-03T11:00:01;4.14;56.30
65470;DHT22;52067;50.710;14.492;2023-04-03T11:02:49;4.42;54.58
65470;DHT22;52067;50.710;14.492;2023-04-03T11:05:39;3.94;57.33
65470;DHT22;52067;50.710;14.492;2023-04-03T11:08:25;4.82;56.51
65470;DHT22;52067;50.710;14.492;2023-04-03T11:10:56;5.63;52.96
65470;DHT22;52067;50.710;14.492;2023-04-03T11:13:28;5.13;50.46
65470;DHT22;52067;50.710;14.492;2023-04-03T11:15:57;4.71;53.34
65470;DHT22;52067;50.710;14.492;2023-04-03T11:18:32;4.18;53.51
65470;DHT22;52067;50.710;14.492;2023-04-03T11:21:24;4.40;53.96
65470;DHT22;52067;50.710;14.492;2023-04-03T11:23:54;4.44;54.41
65470;DHT22;52067;50.710;14.492;2023-04-03T11:26:24;5.47;52.25
65470;DHT22;52067;50.710;14.492;2023-04-03T11:28:58;5.16;49.80
65470;DHT22;52067;50.710;14.492;2023-04-03T11:34:19;4.68;54.56
65470;DHT22;52067;50.710;14.492;2023-04-03T11:36:49;4.94;51.84
65470;DHT22;52067;50.710;14.492;2023-04-03T11:39:23;4.48;51.71
65470;DHT22;52067;50.710;14.492;2023-04-03T11:41:51;4.99;51.35
65470;DHT22;52067;50.710;14.492;2023-04-03T11:44:49;4.25;55.26
65470;DHT22;52067;50.710;14.492;2023-04-03T11:47:44;4.17;54.20
65470;DHT22;52067;50.710;14.492;2023-04-03T11:50:43;3.90;55.47
65470;DHT22;52067;50.710;14.492;2023-04-03T11:58:22;4.10;54.51
65470;DHT22;52067;50.710;14.492;2023-04-03T12:24:27;3.98;55.26
65470;DHT22;52067;50.710;14.492;2023-04-03T12:29:43;3.98;55.56
65470;DHT22;52067;50.710;14.492;2023-04-03T12:32:35;4.40;55.57
65470;DHT22;52067;50.710;14.492;2023-04-03T12:35:23;5.48;54.14
65470;DHT22;52067;50.710;14.492;2023-04-03T12:44:08;5.07;51.08
65470;DHT22;52067;50.710;14.492;2023-04-03T12:46:43;4.72;51.96
65470;DHT22;52067;50.710;14.492;2023-04-03T12:51:52;4.32;53.89
65470;DHT22;52067;50.710;14.492;2023-04-03T12:54:44;4.49;54.94
65470;DHT22;52067;50.710;14.492;2023-04-03T12:59:43;6.03;51.43
65470;DHT22;52067;50.710;14.492;2023-04-03T13:02:32;5.63;52.01
65470;DHT22;52067;50.710;14.492;2023-04-03T13:05:06;4.93;52.36
65470;DHT22;52067;50.710;14.492;2023-04-03T13:07:34;4.31;51.75
65470;DHT22;52067;50.710;14.492;2023-04-03T13:12:44;3.84;53.48
65470;DHT22;52067;50.710;14.492;2023-04-03T13:15:20;3.67;54.33
65470;DHT22;52067;50.710;14.492;2023-04-03T13:17:48;3.53;55.36
65470;DHT22;52067;50.710;14.492;2023-04-03T13:20:27;3.66;56.78
65470;DHT22;52067;50.710;14.492;2023-04-03T13:22:55;3.93;55.48
65470;DHT22;52067;50.710;14.492;2023-04-03T13:25:23;3.84;55.32
65470;DHT22;52067;50.710;14.492;2023-04-03T13:27:49;4.32;53.19
65470;DHT22;52067;50.710;14.492;2023-04-03T13:32:49;4.73;51.25
65470;DHT22;52067;50.710;14.492;2023-04-03T13:35:35;4.92;52.88
65470;DHT22;52067;50.710;14.492;2023-04-03T13:40:58;3.98;51.73
65470;DHT22;52067;50.710;14.492;2023-04-03T13:43:28;3.86;55.04
65470;DHT22;52067;50.710;14.492;2023-04-03T13:48:44;4.07;55.98
65470;DHT22;52067;50.710;14.492;2023-04-03T13:56:17;3.77;53.25
65470;DHT22;52067;50.710;14.492;2023-04-03T13:58:54;3.69;54.10
65470;DHT22;52067;50.710;14.492;2023-04-03T14:01:23;3.73;51.69
65470;DHT22;52067;50.710;14.492;2023-04-03T14:03:58;3.49;54.10
65470;DHT22;52067;50.710;14.492;2023-04-03T14:06:25;3.67;54.06
65470;DHT22;52067;50.710;14.492;2023-04-03T14:08:51;3.52;53.79
65470;DHT22;52067;50.710;14.492;2023-04-03T14:11:21;3.62;53.00
65470;DHT22;52067;50.710;14.492;2023-04-03T14:13:47;3.83;56.06
65470;DHT22;52067;50.710;14.492;2023-04-03T14:16:19;3.58;55.10
65470;DHT22;52067;50.710;14.492;2023-04-03T14:18:46;3.66;54.75
65470;DHT22;52067;50.710;14.492;2023-04-03T14:21:15;4.00;53.91
65470;DHT22;52067;50.710;14.492;2023-04-03T14:23:40;3.93;54.68
65470;DHT22;52067;50.710;14.492;2023-04-03T14:26:12;3.95;55.23
65470;DHT22;52067;50.710;14.492;2023-04-03T14:28:38;3.79;52.59
65470;DHT22;52067;50.710;14.492;2023-04-03T14:31:05;4.04;54.25
65470;DHT22;52067;50.710;14.492;2023-04-03T14:33:32;3.87;53.25
65470;DHT22;52067;50.710;14.492;2023-04-03T14:36:00;3.48;50.48
65470;DHT22;52067;50.710;14.492;2023-04-03T14:38:29;3.39;50.02
65470;DHT22;52067;50.710;14.492;2023-04-03T14:40:55;3.45;49.11
65470;DHT22;52067;50.710;14.492;2023-04-03T14:43:21;3.56;51.79
65470;DHT22;52067;50.710;14.492;2023-04-03T14:45:48;3.52;54.58
65470;DHT22;52067;50.710;14.492;2023-04-03T14:48:32;3.14;54.98
65470;DHT22;52067;50.710;14.492;2023-04-03T14:50:57;3.18;54.25
65470;DHT22;52067;50.710;14.492;2023-04-03T14:53:22;3.39;54.71
65470;DHT22;52067;50.710;14.492;2023-04-03T14:55:50;3.55;53.69
65470;DHT22;52067;50.710;14.492;2023-04-03T14:58:18;3.63;53.10
65470;DHT22;52067;50.710;14.492;2023-04-03T15:00:44;4.04;50.43
65470;DHT22;52067;50.710;14.492;2023-04-03T15:03:15;4.01;50.24
65470;DHT22;52067;50.710;14.492;2023-04-03T15:05:41;3.74;52.17
65470;DHT22;52067;50.710;14.492;2023-04-03T15:08:23;3.21;53.07
65470;DHT22;52067;50.710;14.492;2023-04-03T15:10:49;3.18;54.87
65470;DHT22;52067;50.710;14.492;2023-04-03T15:13:15;3.11;53.20
65470;DHT22;52067;50.710;14.492;2023-04-03T15:15:41;3.17;52.11
65470;DHT22;52067;50.710;14.492;2023-04-03T15:18:06;3.18;54.01
65470;DHT22;52067;50.710;14.492;2023-04-03T15:20:32;3.21;52.76
65470;DHT22;52067;50.710;14.492;2023-04-03T15:23:00;4.68;47.72
65470;DHT22;52067;50.710;14.492;2023-04-03T15:25:29;5.90;47.00
65470;DHT22;52067;50.710;14.492;2023-04-03T15:27:56;4.53;48.82
65470;DHT22;52067;50.710;14.492;2023-04-03T15:30:22;3.87;53.23
65470;DHT22;52067;50.710;14.492;2023-04-03T15:32:47;3.73;50.88
65470;DHT22;52067;50.710;14.492;2023-04-03T15:35:14;3.36;51.32
65470;DHT22;52067;50.710;14.492;2023-04-03T15:37:39;3.25;51.44
65470;DHT22;52067;50.710;14.492;2023-04-03T15:40:06;3.35;52.06
65470;DHT22;52067;50.710;14.492;2023-04-03T15:42:32;3.56;51.61
65470;DHT22;52067;50.710;14.492;2023-04-03T15:44:57;3.82;51.74
65470;DHT22;52067;50.710;14.492;2023-04-03T15:47:24;4.08;50.22
65470;DHT22;52067;50.710;14.492;2023-04-03T15:49:49;4.41;52.32
65470;DHT22;52067;50.710;14.492;2023-04-03T15:52:15;4.82;50.09
65470;DHT22;52067;50.710;14.492;2023-04-03T15:54:40;3.91;49.54
65470;DHT22;52067;50.710;14.492;2023-04-03T15:57:06;3.98;49.53
65470;DHT22;52067;50.710;14.492;2023-04-03T15:59:31;3.52;51.42
65470;DHT22;52067;50.710;14.492;2023-04-03T16:01:57;3.55;52.95
65470;DHT22;52067;50.710;14.492;2023-04-03T16:04:24;3.55;53.33
65470;DHT22;52067;50.710;14.492;2023-04-03T16:06:49;3.25;53.63
65470;DHT22;52067;50.710;14.492;2023-04-03T16:09:15;3.32;53.74
65470;DHT22;52067;50.710;14.492;2023-04-03T16:11:41;3.31;52.61
65470;DHT22;52067;50.710;14.492;2023-04-03T16:14:07;2.93;52.86
65470;DHT22;52067;50.710;14.492;2023-04-03T16:16:33;3.05;54.50
65470;DHT22;52067;50.710;14.492;2023-04-03T16:18:59;3.14;52.47
65470;DHT22;52067;50.710;14.492;2023-04-03T16:21:24;3.38;53.26
65470;DHT22;52067;50.710;14.492;2023-04-03T16:23:50;3.52;53.55
65470;DHT22;52067;50.710;14.492;2023-04-03T16:26:16;3.80;52.91
65470;DHT22;52067;50.710;14.492;2023-04-03T16:28:45;3.70;51.02
65470;DHT22;52067;50.710;14.492;2023-04-03T16:31:11;3.45;52.58
65470;DHT22;52067;50.710;14.492;2023-04-03T16:33:36;3.70;52.96
65470;DHT22;52067;50.710;14.492;2023-04-03T16:36:03;3.60;51.61
65470;DHT22;52067;50.710;14.492;2023-04-03T16:38:29;3.22;52.38
65470;DHT22;52067;50.710;14.492;2023-04-03T16:40:55;3.12;53.66
65470;DHT22;52067;50.710;14.492;2023-04-03T16:43:24;3.05;52.16
65470;DHT22;52067;50.710;14.492;2023-04-03T16:45:50;2.95;52.37
65470;DHT22;52067;50.710;14.492;2023-04-03T16:48:15;3.04;51.68
65470;DHT22;52067;50.710;14.492;2023-04-03T16:50:40;2.97;55.19
65470;DHT22;52067;50.710;14.492;2023-04-03T16:53:06;3.00;56.11
65470;DHT22;52067;50.710;14.492;2023-04-03T16:55:35;3.04;52.89
65470;DHT22;52067;50.710;14.492;2023-04-03T16:58:01;2.80;54.42
65470;DHT22;52067;50.710;14.492;2023-04-03T17:00:29;2.73;55.06
65470;DHT22;52067;50.710;14.492;2023-04-03T17:02:55;2.77;56.86
65470;DHT22;52067;50.710;14.492;2023-04-03T17:05:20;2.68;55.24
65470;DHT22;52067;50.710;14.492;2023-04-03T17:07:45;2.73;54.44
65470;DHT22;52067;50.710;14.492;2023-04-03T17:10:11;2.58;55.73
65470;DHT22;52067;50.710;14.492;2023-04-03T17:12:37;2.57;56.43
65470;DHT22;52067;50.710;14.492;2023-04-03T17:15:03;2.42;57.27
65470;DHT22;52067;50.710;14.492;2023-04-03T17:17:28;2.36;56.56